createdAt,value
2023-02-07T00:00:01.996Z,90.88
2023-02-07T00:01:01.984Z,90.99
2023-02-07T00:02:02.030Z,90.99
2023-02-07T00:03:01.962Z,90.99
2023-02-07T00:04:01.944Z,90.88
2023-02-07T00:05:01.937Z,90.99
2023-02-07T00:06:01.925Z,90.99
2023-02-07T00:07:01.919Z,90.78
2023-02-07T00:08:01.890Z,90.78
2023-02-07T00:09:01.897Z,90.67
2023-02-07T00:10:01.872Z,90.67
2023-02-07T00:11:01.844Z,90.67
2023-02-07T00:12:01.852Z,90.56
2023-02-07T00:13:01.845Z,90.46
2023-02-07T00:14:01.830Z,90.36
2023-02-07T00:15:01.800Z,90.25
2023-02-07T00:16:01.799Z,90.36
2023-02-07T00:17:01.795Z,90.25
2023-02-07T00:18:01.781Z,90.25
2023-02-07T00:19:01.753Z,90.14
2023-02-07T00:20:01.769Z,90.14
2023-02-07T00:21:01.731Z,90.14
2023-02-07T00:22:01.731Z,90.14
2023-02-07T00:23:01.700Z,90.25
2023-02-07T00:24:01.698Z,90.36
2023-02-07T00:25:01.684Z,90.25
2023-02-07T00:26:01.683Z,90.14
2023-02-07T00:27:01.681Z,90.29
2023-02-07T00:28:01.751Z,90.29
2023-02-07T00:29:01.647Z,90.40
2023-02-07T00:30:01.629Z,90.50
2023-02-07T00:31:01.731Z,90.71
2023-02-07T00:32:01.605Z,90.82
2023-02-07T00:33:01.587Z,90.82
2023-02-07T00:34:01.584Z,90.92
2023-02-07T00:35:01.554Z,91.03
2023-02-07T00:36:01.554Z,91.24
2023-02-07T00:37:01.545Z,91.24
2023-02-07T00:38:01.523Z,91.28
2023-02-07T00:39:01.551Z,91.39
2023-02-07T00:40:01.501Z,91.28
2023-02-07T00:41:01.521Z,91.28
2023-02-07T00:42:01.520Z,91.39
2023-02-07T00:43:01.451Z,91.39
2023-02-07T00:44:01.440Z,91.39
2023-02-07T00:45:01.431Z,91.49
2023-02-07T00:46:01.487Z,91.49
2023-02-07T00:47:01.414Z,91.49
2023-02-07T00:48:01.415Z,91.42
2023-02-07T00:49:01.384Z,91.42
2023-02-07T00:50:01.381Z,91.53
2023-02-07T00:51:01.361Z,91.64
2023-02-07T00:52:01.357Z,91.64
2023-02-07T00:53:01.345Z,91.64
2023-02-07T00:54:01.332Z,91.64
2023-02-07T00:55:01.329Z,91.64
2023-02-07T00:56:01.292Z,91.64
2023-02-07T00:57:01.295Z,91.74
2023-02-07T00:58:01.289Z,91.74
2023-02-07T00:59:01.271Z,91.74
2023-02-07T01:00:01.258Z,91.74
2023-02-07T01:01:01.276Z,91.74
2023-02-07T01:02:01.232Z,91.64
2023-02-07T01:03:01.215Z,91.53
2023-02-07T01:04:01.204Z,91.53
2023-02-07T01:05:01.221Z,91.53
2023-02-07T01:06:01.201Z,91.53
2023-02-07T01:07:01.164Z,91.64
2023-02-07T01:08:01.156Z,91.64
2023-02-07T01:09:01.148Z,91.64
2023-02-07T01:10:01.136Z,91.53
2023-02-07T01:11:01.118Z,91.32
2023-02-07T01:12:01.119Z,91.26
2023-02-07T01:13:01.098Z,91.47
2023-02-07T01:14:01.121Z,91.57
2023-02-07T01:15:01.067Z,91.78
2023-02-07T01:16:01.165Z,91.68
2023-02-07T01:17:01.055Z,91.57
2023-02-07T01:18:01.080Z,91.51
2023-02-07T01:19:01.016Z,91.51
2023-02-07T01:20:01.031Z,91.61
2023-02-07T01:21:00.999Z,91.72
2023-02-07T01:22:00.999Z,91.72
2023-02-07T01:23:00.969Z,91.97
2023-02-07T01:24:00.970Z,92.08
2023-02-07T01:25:00.956Z,92.29
2023-02-07T01:26:00.936Z,92.29
2023-02-07T01:27:00.920Z,92.29
2023-02-07T01:28:01.003Z,92.40
2023-02-07T01:29:00.890Z,92.40
2023-02-07T01:30:00.876Z,92.44
2023-02-07T01:31:00.964Z,92.65
2023-02-07T01:32:00.868Z,92.76
2023-02-07T01:33:00.841Z,92.86
2023-02-07T01:34:00.851Z,93.07
2023-02-07T01:35:00.804Z,93.07
2023-02-07T01:36:00.806Z,93.18
2023-02-07T01:37:00.803Z,93.28
2023-02-07T01:38:00.784Z,93.28
2023-02-07T01:39:00.773Z,93.28
2023-02-07T01:40:00.754Z,93.32
2023-02-07T01:41:00.738Z,93.43
2023-02-07T01:42:00.736Z,93.54
2023-02-07T01:43:00.703Z,93.64
2023-02-07T01:44:00.708Z,93.64
2023-02-07T01:45:00.689Z,93.74
2023-02-07T01:46:00.746Z,93.85
2023-02-07T01:47:00.676Z,93.85
2023-02-07T01:48:00.654Z,93.85
2023-02-07T01:49:00.641Z,93.85
2023-02-07T01:50:00.630Z,93.85
2023-02-07T01:51:00.614Z,93.85
2023-02-07T01:52:00.601Z,93.74
2023-02-07T01:53:00.580Z,93.74
2023-02-07T01:54:00.579Z,93.74
2023-02-07T01:55:00.556Z,93.80
2023-02-07T01:56:00.547Z,93.91
2023-02-07T01:57:00.547Z,93.91
2023-02-07T01:58:00.532Z,93.91
2023-02-07T01:59:00.532Z,93.91
2023-02-07T02:00:00.519Z,93.80
2023-02-07T02:01:00.479Z,93.80
2023-02-07T02:02:00.475Z,93.80
2023-02-07T02:03:00.465Z,93.66
2023-02-07T02:04:00.513Z,93.55
2023-02-07T02:05:07.945Z,93.45
2023-02-07T02:06:00.451Z,93.45
2023-02-07T02:07:00.395Z,93.34
2023-02-07T02:08:00.405Z,93.34
2023-02-07T02:09:00.394Z,93.24
2023-02-07T02:10:00.407Z,93.13
2023-02-07T02:11:00.380Z,93.03
2023-02-07T02:12:00.348Z,92.92
2023-02-07T02:13:00.353Z,92.92
2023-02-07T02:14:00.336Z,92.92
2023-02-07T02:15:00.324Z,92.92
2023-02-07T02:16:00.318Z,92.92
2023-02-07T02:17:00.293Z,92.92
2023-02-07T02:18:00.413Z,92.92
2023-02-07T02:19:00.256Z,92.92
2023-02-07T02:20:00.265Z,92.92
2023-02-07T02:21:00.252Z,92.82
2023-02-07T02:22:00.216Z,92.76
2023-02-07T02:23:00.231Z,92.65
2023-02-07T02:24:00.206Z,92.65
2023-02-07T02:25:00.185Z,92.76
2023-02-07T02:26:00.196Z,92.86
2023-02-07T02:27:00.172Z,92.86
2023-02-07T02:28:00.161Z,92.96
2023-02-07T02:29:00.148Z,92.96
2023-02-07T02:30:00.131Z,93.07
2023-02-07T02:31:00.223Z,93.22
2023-02-07T02:32:00.094Z,93.22
2023-02-07T02:33:00.098Z,93.22
2023-02-07T02:34:00.099Z,93.11
2023-02-07T02:35:00.093Z,93.11
2023-02-07T02:36:00.079Z,93.11
2023-02-07T02:37:00.050Z,93.01
2023-02-07T02:38:00.031Z,93.05
2023-02-07T02:39:00.016Z,93.05
2023-02-07T02:40:00.010Z,93.05
2023-02-07T02:40:59.975Z,93.15
2023-02-07T02:41:59.998Z,93.26
2023-02-07T02:42:59.956Z,93.37
2023-02-07T02:43:59.942Z,93.41
2023-02-07T02:44:59.941Z,93.51
2023-02-07T02:45:59.932Z,93.62
2023-02-07T02:46:59.989Z,93.62
2023-02-07T02:47:59.892Z,93.73
2023-02-07T02:48:59.887Z,93.73
2023-02-07T02:49:59.900Z,93.73
2023-02-07T02:50:59.861Z,93.83
2023-02-07T02:51:59.839Z,93.87
2023-02-07T02:52:59.841Z,93.87
2023-02-07T02:53:59.838Z,93.87
2023-02-07T02:54:59.852Z,93.98
2023-02-07T02:55:59.807Z,93.87
2023-02-07T02:56:59.811Z,93.87
2023-02-07T02:58:01.450Z,93.87
2023-02-07T02:58:59.760Z,93.98
2023-02-07T02:59:59.759Z,93.98
2023-02-07T03:00:59.740Z,94.02
2023-02-07T03:01:59.778Z,94.02
2023-02-07T03:02:59.723Z,94.02
2023-02-07T03:03:59.705Z,94.02
2023-02-07T03:04:59.751Z,94.02
2023-02-07T03:05:59.671Z,94.13
2023-02-07T03:06:59.661Z,94.13
2023-02-07T03:07:59.662Z,94.13
2023-02-07T03:08:59.631Z,94.13
2023-02-07T03:09:59.635Z,94.27
2023-02-07T03:10:59.624Z,94.27
2023-02-07T03:11:59.599Z,94.27
2023-02-07T03:12:59.615Z,94.27
2023-02-07T03:13:59.567Z,94.38
2023-02-07T03:14:59.582Z,94.38
2023-02-07T03:15:59.567Z,94.38
2023-02-07T03:16:59.547Z,94.48
2023-02-07T03:17:59.584Z,94.48
2023-02-07T03:18:59.515Z,94.53
2023-02-07T03:19:59.513Z,94.53
2023-02-07T03:21:00.575Z,94.53
2023-02-07T03:21:59.505Z,94.53
2023-02-07T03:22:59.480Z,94.64
2023-02-07T03:23:59.477Z,94.64
2023-02-07T03:24:59.458Z,94.64
2023-02-07T03:25:59.431Z,94.64
2023-02-07T03:26:59.429Z,94.64
2023-02-07T03:27:59.445Z,94.74
2023-02-07T03:28:59.401Z,94.74
2023-02-07T03:29:59.383Z,94.74
2023-02-07T03:30:59.404Z,94.85
2023-02-07T03:31:59.355Z,94.74
2023-02-07T03:32:59.382Z,94.74
2023-02-07T03:33:59.362Z,94.85
2023-02-07T03:34:59.317Z,94.85
2023-02-07T03:35:59.317Z,94.89
2023-02-07T03:36:59.299Z,95.00
2023-02-07T03:37:59.316Z,94.89
2023-02-07T03:38:59.276Z,94.89
2023-02-07T03:39:59.280Z,94.89
2023-02-07T03:40:59.258Z,94.89
2023-02-07T03:41:59.258Z,94.89
2023-02-07T03:42:59.235Z,94.89
2023-02-07T03:43:59.221Z,94.89
2023-02-07T03:44:59.225Z,94.89
2023-02-07T03:45:59.208Z,95.00
2023-02-07T03:46:59.189Z,95.00
2023-02-07T03:47:59.193Z,95.10
2023-02-07T03:48:59.165Z,95.10
2023-02-07T03:49:59.166Z,95.00
2023-02-07T04:03:20.144Z,95.04
2023-02-07T04:04:20.106Z,95.04
2023-02-07T04:05:20.110Z,95.14
2023-02-07T04:06:20.086Z,95.14
2023-02-07T04:07:20.084Z,95.14
2023-02-07T04:08:20.077Z,95.14
2023-02-07T04:09:20.049Z,95.14
2023-02-07T04:10:20.046Z,95.14
2023-02-07T04:11:20.036Z,95.14
2023-02-07T04:12:20.029Z,95.14
2023-02-07T04:13:19.995Z,95.14
2023-02-07T04:14:19.978Z,95.14
2023-02-07T04:15:19.994Z,95.04
2023-02-07T04:16:20.031Z,95.04
2023-02-07T04:17:19.966Z,95.14
2023-02-07T04:18:19.933Z,95.04
2023-02-07T04:19:19.935Z,95.04
2023-02-07T04:20:19.934Z,95.04
2023-02-07T04:21:19.974Z,95.04
2023-02-07T04:22:19.885Z,95.04
2023-02-07T04:23:19.892Z,95.04
2023-02-07T04:24:19.866Z,95.04
2023-02-07T04:25:19.881Z,95.14
2023-02-07T04:26:19.833Z,95.04
2023-02-07T04:27:19.840Z,94.93
2023-02-07T04:28:19.857Z,94.93
2023-02-07T04:29:19.828Z,94.93
2023-02-07T04:30:19.843Z,94.82
2023-02-07T04:31:19.841Z,94.82
2023-02-07T04:32:19.769Z,94.82
2023-02-07T04:33:19.766Z,94.82
2023-02-07T04:34:19.734Z,94.76
2023-02-07T04:35:19.761Z,94.76
2023-02-07T04:36:19.733Z,94.72
2023-02-07T04:37:19.698Z,94.72
2023-02-07T04:38:19.820Z,94.82
2023-02-07T04:39:19.714Z,94.82
2023-02-07T04:40:19.696Z,94.93
2023-02-07T04:41:19.691Z,94.93
2023-02-07T04:42:19.645Z,94.93
2023-02-07T04:43:19.637Z,95.04
2023-02-07T04:44:19.670Z,95.04
2023-02-07T04:45:19.639Z,95.04
2023-02-07T04:46:19.577Z,95.04
2023-02-07T04:47:19.582Z,95.04
2023-02-07T04:48:19.608Z,95.10
2023-02-07T04:49:19.597Z,95.00
2023-02-07T04:50:19.608Z,95.00
2023-02-07T04:51:19.518Z,94.93
2023-02-07T04:52:19.516Z,94.93
2023-02-07T04:53:19.513Z,94.82
2023-02-07T04:54:19.513Z,94.82
2023-02-07T04:55:19.486Z,94.72
2023-02-07T04:56:19.501Z,94.82
2023-02-07T04:57:19.456Z,94.82
2023-02-07T04:58:19.561Z,94.72
2023-02-07T04:59:19.428Z,94.72
2023-02-07T05:00:19.427Z,94.72
2023-02-07T05:01:19.468Z,94.82
2023-02-07T05:02:19.434Z,94.82
2023-02-07T05:03:19.398Z,94.72
2023-02-07T05:04:19.417Z,94.72
2023-02-07T05:05:19.394Z,94.82
2023-02-07T05:06:19.368Z,94.82
2023-02-07T05:07:19.359Z,94.93
2023-02-07T05:08:19.333Z,94.93
2023-02-07T05:09:19.309Z,94.93
2023-02-07T05:10:19.334Z,94.82
2023-02-07T05:11:19.293Z,94.82
2023-02-07T05:12:19.309Z,94.82
2023-02-07T05:13:19.307Z,94.72
2023-02-07T05:14:19.252Z,94.72
2023-02-07T05:15:19.273Z,94.72
2023-02-07T05:16:19.262Z,94.72
2023-02-07T05:17:19.244Z,94.72
2023-02-07T05:18:19.296Z,94.82
2023-02-07T05:19:19.191Z,94.82
2023-02-07T05:20:19.259Z,94.72
2023-02-07T05:21:19.207Z,94.72
2023-02-07T05:22:19.176Z,94.65
2023-02-07T05:23:19.145Z,94.55
2023-02-07T05:24:19.144Z,94.55
2023-02-07T05:25:19.158Z,94.55
2023-02-07T05:26:19.125Z,94.45
2023-02-07T05:27:19.146Z,94.45
2023-02-07T05:28:19.234Z,94.55
2023-02-07T05:29:19.088Z,94.55
2023-02-07T05:30:19.086Z,94.55
2023-02-07T05:31:19.207Z,94.55
2023-02-07T05:32:19.053Z,94.65
2023-02-07T05:33:19.025Z,94.76
2023-02-07T05:34:19.033Z,94.76
2023-02-07T05:35:19.041Z,94.76
2023-02-07T05:36:19.001Z,94.87
2023-02-07T05:37:19.012Z,94.87
2023-02-07T05:38:19.005Z,94.87
2023-02-07T05:39:18.956Z,94.98
2023-02-07T05:40:18.963Z,94.98
2023-02-07T05:41:18.940Z,94.98
2023-02-07T05:42:18.940Z,94.98
2023-02-07T05:43:18.905Z,94.98
2023-02-07T05:44:18.900Z,94.87
2023-02-07T05:45:18.901Z,94.87
2023-02-07T05:46:18.895Z,94.87
2023-02-07T05:47:18.877Z,94.87
2023-02-07T05:48:18.914Z,94.87
2023-02-07T05:49:18.834Z,94.87
2023-02-07T05:50:18.856Z,94.76
2023-02-07T05:51:18.821Z,94.87
2023-02-07T05:52:18.786Z,94.76
2023-02-07T05:53:18.800Z,94.76
2023-02-07T05:54:18.787Z,94.76
2023-02-07T05:55:18.824Z,94.76
2023-02-07T05:56:18.740Z,94.65
2023-02-07T05:57:18.740Z,94.76
2023-02-07T05:58:18.769Z,94.65
2023-02-07T05:59:18.707Z,94.65
2023-02-07T06:00:18.756Z,94.65
2023-02-07T06:01:18.696Z,94.65
2023-02-07T06:02:18.681Z,94.61
2023-02-07T06:03:18.675Z,94.51
2023-02-07T06:04:18.664Z,94.51
2023-02-07T06:05:18.717Z,94.51
2023-02-07T06:06:18.636Z,94.40
2023-02-07T06:07:18.636Z,94.40
2023-02-07T06:08:18.608Z,94.29
2023-02-07T06:09:18.585Z,94.23
2023-02-07T06:10:18.624Z,94.13
2023-02-07T06:11:18.573Z,94.13
2023-02-07T06:12:18.546Z,94.13
2023-02-07T06:13:18.525Z,94.13
2023-02-07T06:14:18.527Z,94.13
2023-02-07T06:15:18.527Z,94.13
2023-02-07T06:16:18.524Z,94.13
2023-02-07T06:17:18.474Z,94.13
2023-02-07T06:18:18.488Z,94.23
2023-02-07T06:19:18.454Z,94.23
2023-02-07T06:20:18.485Z,94.23
2023-02-07T06:21:18.455Z,94.13
2023-02-07T06:22:18.448Z,94.13
2023-02-07T06:23:18.424Z,94.23
2023-02-07T06:24:18.434Z,94.23
2023-02-07T06:25:20.435Z,94.34
2023-02-07T06:26:18.418Z,94.34
2023-02-07T06:27:18.364Z,94.34
2023-02-07T06:28:18.365Z,94.45
2023-02-07T06:29:18.334Z,94.34
2023-02-07T06:30:18.333Z,94.34
2023-02-07T06:31:18.404Z,94.34
2023-02-07T06:32:18.334Z,94.34
2023-02-07T06:33:18.296Z,94.34
2023-02-07T06:34:18.282Z,94.34
2023-02-07T06:35:18.245Z,94.23
2023-02-07T06:36:18.307Z,94.23
2023-02-07T06:37:18.247Z,94.23
2023-02-07T06:38:18.252Z,94.23
2023-02-07T06:39:18.241Z,94.23
2023-02-07T06:40:18.206Z,94.23
2023-02-07T06:41:18.354Z,94.13
2023-02-07T06:42:18.188Z,94.13
2023-02-07T06:43:18.180Z,94.02
2023-02-07T06:44:18.235Z,94.02
2023-02-07T06:45:18.139Z,94.02
2023-02-07T06:46:18.173Z,94.02
2023-02-07T06:47:18.256Z,94.02
2023-02-07T06:48:18.104Z,94.13
2023-02-07T06:49:18.118Z,94.02
2023-02-07T06:50:18.150Z,94.13
2023-02-07T06:51:18.080Z,94.13
2023-02-07T06:52:18.093Z,94.13
2023-02-07T06:53:18.046Z,94.13
2023-02-07T06:54:18.029Z,94.13
2023-02-07T06:55:18.024Z,94.13
2023-02-07T06:56:18.755Z,94.13
2023-02-07T06:57:18.033Z,94.13
2023-02-07T06:58:18.002Z,94.23
2023-02-07T06:59:17.967Z,94.23
2023-02-07T07:00:17.946Z,94.13
2023-02-07T07:01:18.041Z,94.13
2023-02-07T07:02:17.950Z,94.02
2023-02-07T07:03:17.970Z,94.13
2023-02-07T07:04:17.985Z,94.13
2023-02-07T07:05:17.958Z,94.09
2023-02-07T07:06:17.960Z,94.13
2023-02-07T07:07:17.868Z,94.02
2023-02-07T07:08:17.970Z,94.02
2023-02-07T07:09:17.876Z,93.91
2023-02-07T07:10:17.947Z,93.87
2023-02-07T07:11:17.853Z,93.87
2023-02-07T07:12:17.858Z,93.87
2023-02-07T07:13:17.805Z,93.98
2023-02-07T07:14:17.919Z,93.98
2023-02-07T07:15:17.924Z,94.09
2023-02-07T07:16:17.853Z,94.04
2023-02-07T07:17:17.835Z,94.04
2023-02-07T07:18:17.771Z,94.04
2023-02-07T07:19:17.732Z,94.04
2023-02-07T07:20:17.759Z,93.93
2023-02-07T07:21:17.763Z,93.89
2023-02-07T07:22:18.724Z,93.89
2023-02-07T07:23:17.923Z,93.89
2023-02-07T07:24:17.757Z,93.79
2023-02-07T07:25:17.728Z,93.79
2023-02-07T07:26:17.691Z,93.68
2023-02-07T07:27:17.732Z,93.57
2023-02-07T07:28:17.665Z,93.47
2023-02-07T07:29:17.620Z,93.37
2023-02-07T07:30:17.611Z,93.32
2023-02-07T07:31:17.775Z,93.32
2023-02-07T07:32:32.102Z,93.32
2023-02-07T07:33:18.694Z,93.21
2023-02-07T07:34:17.580Z,93.32
2023-02-07T07:35:18.859Z,93.28
2023-02-07T07:36:17.587Z,93.28
2023-02-07T07:37:17.592Z,93.28
2023-02-07T07:38:17.531Z,93.18
2023-02-07T07:39:17.483Z,92.96
2023-02-07T07:40:17.668Z,92.96
2023-02-07T07:41:17.499Z,92.96
2023-02-07T07:42:17.678Z,92.86
2023-02-07T07:43:17.439Z,92.82
2023-02-07T07:44:17.456Z,92.82
2023-02-07T07:45:17.469Z,92.71
2023-02-07T07:46:17.483Z,92.71
2023-02-07T07:47:17.534Z,92.71
2023-02-07T07:48:17.412Z,92.67
2023-02-07T07:49:17.497Z,92.67
2023-02-07T07:50:17.356Z,92.56
2023-02-07T07:51:17.340Z,92.46
2023-02-07T07:52:17.382Z,92.41
2023-02-07T07:53:17.318Z,92.20
2023-02-07T07:54:17.322Z,91.99
2023-02-07T07:55:17.461Z,91.89
2023-02-07T07:56:17.343Z,91.67
2023-02-07T07:57:17.849Z,91.42
2023-02-07T07:58:17.485Z,91.21
2023-02-07T07:59:23.827Z,91.00
2023-02-07T08:00:18.262Z,90.79
2023-02-07T08:01:17.434Z,90.47
2023-02-07T08:02:17.262Z,90.37
2023-02-07T08:03:17.250Z,90.37
2023-02-07T08:04:17.193Z,90.22
2023-02-07T08:05:24.704Z,90.01
2023-02-07T08:06:17.163Z,89.90
2023-02-07T08:07:17.155Z,89.69
2023-02-07T08:08:17.140Z,89.48
2023-02-07T08:09:17.125Z,89.06
2023-02-07T08:10:17.112Z,88.95
2023-02-07T08:11:17.130Z,88.85
2023-02-07T08:12:17.105Z,88.81
2023-02-07T08:13:17.095Z,88.81
2023-02-07T08:14:17.074Z,88.92
2023-02-07T08:15:17.050Z,88.70
2023-02-07T08:16:17.090Z,88.39
2023-02-07T08:17:17.046Z,88.18
2023-02-07T08:18:17.013Z,87.96
2023-02-07T08:19:17.027Z,87.76
2023-02-07T08:20:16.997Z,87.96
2023-02-07T08:21:16.976Z,88.28
2023-02-07T08:22:16.984Z,88.60
2023-02-07T08:23:16.950Z,88.77
2023-02-07T08:24:16.936Z,88.77
2023-02-07T08:25:16.937Z,88.66
2023-02-07T08:26:16.923Z,88.35
2023-02-07T08:27:16.930Z,88.41
2023-02-07T08:28:16.969Z,88.41
2023-02-07T08:29:16.881Z,88.20
2023-02-07T08:30:16.863Z,87.99
2023-02-07T08:31:17.005Z,87.85
2023-02-07T08:32:16.850Z,87.85
2023-02-07T08:33:16.836Z,87.42
2023-02-07T08:34:16.826Z,86.79
2023-02-07T08:35:16.794Z,86.16
2023-02-07T08:36:16.785Z,86.02
2023-02-07T08:37:16.809Z,86.22
2023-02-07T08:38:16.765Z,86.22
2023-02-07T08:39:16.754Z,86.22
2023-02-07T08:40:16.743Z,86.12
2023-02-07T08:41:16.727Z,85.77
2023-02-07T08:42:16.804Z,85.45
2023-02-07T08:43:16.704Z,85.45
2023-02-07T08:44:16.696Z,85.35
2023-02-07T08:45:16.684Z,85.03
2023-02-07T08:46:16.714Z,84.57
2023-02-07T08:47:17.963Z,84.67
2023-02-07T08:48:16.663Z,84.99
2023-02-07T08:49:16.633Z,84.78
2023-02-07T08:50:16.634Z,84.25
2023-02-07T08:51:16.585Z,84.11
2023-02-07T08:52:16.599Z,84.01
2023-02-07T08:53:16.574Z,83.90
2023-02-07T08:54:16.567Z,84.11
2023-02-07T08:55:16.553Z,83.97
2023-02-07T08:56:16.526Z,83.44
2023-02-07T08:57:16.526Z,83.13
2023-02-07T08:58:16.525Z,82.71
2023-02-07T08:59:16.484Z,82.04
2023-02-07T09:00:16.474Z,82.00
2023-02-07T09:01:16.524Z,81.90
2023-02-07T09:02:16.530Z,80.91
2023-02-07T09:03:16.440Z,80.46
2023-02-07T09:04:16.447Z,80.15
2023-02-07T09:05:16.514Z,79.90
2023-02-07T09:06:16.423Z,79.55
2023-02-07T09:07:16.433Z,78.29
2023-02-07T09:08:16.478Z,78.36
2023-02-07T09:09:16.405Z,77.31
2023-02-07T09:10:16.355Z,76.40
2023-02-07T09:11:16.370Z,75.15
2023-02-07T09:12:16.346Z,72.92
2023-02-07T09:13:16.320Z,69.95
2023-02-07T09:14:16.314Z,66.88
2023-02-07T09:15:16.305Z,62.37
2023-02-07T09:16:16.305Z,59.26
2023-02-07T09:17:16.286Z,56.05
2023-02-07T09:18:16.258Z,53.22
2023-02-07T09:19:16.266Z,51.50
2023-02-07T09:20:16.285Z,50.52
2023-02-07T09:21:16.237Z,49.65
2023-02-07T09:22:16.256Z,48.79
2023-02-07T09:23:16.480Z,46.30
2023-02-07T09:24:16.197Z,47.00
2023-02-07T09:25:16.189Z,46.67
2023-02-07T09:26:16.190Z,45.39
2023-02-07T09:27:16.186Z,43.43
2023-02-07T09:28:16.202Z,44.02
2023-02-07T09:29:16.140Z,43.94
2023-02-07T09:30:16.117Z,44.88
2023-02-07T09:31:16.181Z,44.53
2023-02-07T09:32:16.081Z,42.99
2023-02-07T09:33:16.064Z,42.91
2023-02-07T09:34:16.066Z,43.65
2023-02-07T09:35:16.059Z,42.73
2023-02-07T09:36:16.031Z,44.70
2023-02-07T09:37:16.038Z,43.67
2023-02-07T09:38:16.035Z,44.68
2023-02-07T09:39:15.999Z,42.90
2023-02-07T09:40:15.982Z,42.55
2023-02-07T09:41:15.980Z,42.14
2023-02-07T09:42:16.012Z,40.48
2023-02-07T09:43:16.120Z,40.26
2023-02-07T09:44:16.077Z,40.55
2023-02-07T09:45:16.086Z,39.14
2023-02-07T09:46:15.939Z,40.70
2023-02-07T09:47:15.919Z,42.34
2023-02-07T10:03:59.977Z,39.46
2023-02-07T10:04:59.947Z,39.78
2023-02-07T10:06:12.528Z,40.09
2023-02-07T10:07:00.936Z,39.46
2023-02-07T10:07:59.918Z,39.05
2023-02-07T10:08:59.902Z,39.07
2023-02-07T10:09:59.894Z,40.19
2023-02-07T10:10:59.920Z,39.17
2023-02-07T10:12:00.000Z,38.25
2023-02-07T10:12:59.863Z,38.96
2023-02-07T10:13:59.836Z,39.48
2023-02-07T10:14:59.825Z,40.09
2023-02-07T10:15:59.856Z,39.67
2023-02-07T10:16:59.830Z,37.82
2023-02-07T10:17:59.801Z,39.03
2023-02-07T10:18:59.767Z,39.48
2023-02-07T10:19:59.800Z,38.96
2023-02-07T10:20:59.759Z,39.69
2023-02-07T10:21:59.732Z,37.52
2023-02-07T10:22:59.726Z,37.72
2023-02-07T10:23:59.740Z,38.39
2023-02-07T10:24:59.677Z,39.11
2023-02-07T10:25:59.688Z,40.11
2023-02-07T10:26:59.658Z,38.03
2023-02-07T10:27:59.708Z,38.11
2023-02-07T10:28:59.638Z,37.89
2023-02-07T10:29:59.627Z,37.45
2023-02-07T10:30:59.796Z,36.43
2023-02-07T10:31:59.605Z,35.69
2023-02-07T10:32:59.618Z,36.82
2023-02-07T10:33:59.583Z,37.85
2023-02-07T10:34:59.560Z,39.85
2023-02-07T10:35:59.540Z,39.85
2023-02-07T10:36:59.530Z,39.01
2023-02-07T10:37:59.545Z,37.23
2023-02-07T10:39:08.283Z,35.68
2023-02-07T10:40:00.512Z,37.90
2023-02-07T10:40:59.492Z,37.33
2023-02-07T10:41:59.492Z,37.35
2023-02-07T10:42:59.516Z,38.14
2023-02-07T10:43:59.463Z,34.76
2023-02-07T10:44:59.435Z,34.12
2023-02-07T10:46:04.520Z,34.32
2023-02-07T10:47:00.420Z,35.02
2023-02-07T10:47:59.400Z,34.87
2023-02-07T10:48:59.395Z,34.22
2023-02-07T10:49:59.373Z,32.38
2023-02-07T10:50:59.362Z,31.16
2023-02-07T10:51:59.359Z,31.26
2023-02-07T10:52:59.348Z,32.80
2023-02-07T10:53:59.633Z,32.40
2023-02-07T10:54:59.306Z,31.77
2023-02-07T10:55:59.297Z,31.47
2023-02-07T10:57:02.298Z,32.80
2023-02-07T10:58:06.358Z,31.79
2023-02-07T10:59:00.256Z,32.26
2023-02-07T10:59:59.243Z,31.15
2023-02-07T11:00:59.232Z,31.12
2023-02-07T11:01:59.294Z,30.51
2023-02-07T11:02:59.250Z,30.62
2023-02-07T11:03:59.204Z,30.43
2023-02-07T11:04:59.168Z,30.91
2023-02-07T11:05:59.168Z,31.52
2023-02-07T11:06:59.148Z,33.48
2023-02-07T11:07:59.144Z,31.15
2023-02-07T11:08:59.162Z,32.65
2023-02-07T11:09:59.117Z,32.67
2023-02-07T11:10:59.133Z,34.69
2023-02-07T11:11:59.082Z,31.52
2023-02-07T11:12:59.068Z,31.54
2023-02-07T11:13:59.070Z,30.41
2023-02-07T11:14:59.070Z,30.80
2023-02-07T11:15:59.052Z,31.09
2023-02-07T11:16:59.119Z,32.31
2023-02-07T11:17:59.043Z,29.37
2023-02-07T11:18:58.991Z,28.86
2023-02-07T11:19:59.016Z,29.15
2023-02-07T11:20:58.985Z,28.55
2023-02-07T11:21:58.953Z,30.27
2023-02-07T11:22:58.944Z,30.90
2023-02-07T11:23:58.943Z,29.67
2023-02-07T11:24:58.926Z,29.56
2023-02-07T11:25:58.906Z,29.24
2023-02-07T11:26:58.893Z,29.44
2023-02-07T11:27:58.919Z,28.70
2023-02-07T11:28:58.875Z,30.51
2023-02-07T11:29:58.855Z,28.78
2023-02-07T11:30:58.884Z,26.75
2023-02-07T11:31:58.844Z,26.65
2023-02-07T11:32:58.834Z,27.06
2023-02-07T11:33:58.805Z,27.18
2023-02-07T11:34:58.799Z,29.76
2023-02-07T11:35:58.786Z,29.86
2023-02-07T11:36:58.767Z,28.34
2023-02-07T11:37:58.780Z,30.90
2023-02-07T11:38:58.747Z,33.47
2023-02-07T11:39:58.750Z,30.50
2023-02-07T11:40:58.722Z,29.46
2023-02-07T11:41:58.699Z,29.22
2023-02-07T11:42:58.737Z,28.24
2023-02-07T11:43:58.679Z,28.94
2023-02-07T11:44:58.684Z,29.56
2023-02-07T11:45:59.508Z,30.24
2023-02-07T11:46:58.653Z,27.70
2023-02-07T11:47:58.647Z,28.63
2023-02-07T11:48:58.601Z,27.63
2023-02-07T11:49:58.611Z,31.93
2023-02-07T11:50:58.583Z,32.28
2023-02-07T11:51:58.577Z,31.54
2023-02-07T11:52:59.264Z,29.90
2023-02-07T11:53:58.573Z,28.56
2023-02-07T11:54:58.554Z,27.01
2023-02-07T11:55:58.524Z,27.70
2023-02-07T11:56:58.537Z,28.30
2023-02-07T11:57:58.527Z,28.69
2023-02-07T11:58:58.498Z,28.61
2023-02-07T11:59:58.535Z,29.72
2023-02-07T12:00:58.458Z,29.13
2023-02-07T12:01:58.521Z,26.89
2023-02-07T12:02:58.468Z,27.39
2023-02-07T12:03:58.445Z,28.20
2023-02-07T12:04:58.474Z,28.29
2023-02-07T12:05:58.411Z,26.35
2023-02-07T12:06:58.400Z,25.74
2023-02-07T12:07:58.391Z,27.64
2023-02-07T12:08:58.362Z,26.45
2023-02-07T12:09:58.363Z,27.48
2023-02-07T12:10:58.352Z,27.70
2023-02-07T12:11:58.340Z,27.37
2023-02-07T12:12:58.323Z,28.78
2023-02-07T12:13:58.315Z,27.45
2023-02-07T12:14:58.286Z,27.97
2023-02-07T12:15:58.338Z,28.59
2023-02-07T12:16:58.261Z,28.26
2023-02-07T12:17:58.251Z,26.86
2023-02-07T12:18:58.225Z,25.22
2023-02-07T12:19:58.234Z,27.04
2023-02-07T12:20:58.216Z,25.70
2023-02-07T12:21:58.222Z,26.10
2023-02-07T12:23:11.648Z,27.30
2023-02-07T12:23:59.246Z,26.20
2023-02-07T12:24:58.159Z,26.02
2023-02-07T12:25:58.170Z,26.43
2023-02-07T12:26:58.137Z,25.60
2023-02-07T12:27:58.168Z,26.51
2023-02-07T12:29:12.053Z,27.33
2023-02-07T12:29:59.101Z,27.03
2023-02-07T12:30:58.116Z,26.31
2023-02-07T12:31:58.227Z,26.29
2023-02-07T12:32:58.168Z,25.58
2023-02-07T12:33:58.073Z,26.28
2023-02-07T12:34:58.107Z,26.62
2023-02-07T12:35:58.701Z,25.81
2023-02-07T12:36:58.002Z,27.11
2023-02-07T12:37:58.035Z,25.70
2023-02-07T12:38:57.987Z,26.32
2023-02-07T12:39:57.996Z,24.40
2023-02-07T12:40:57.983Z,25.92
2023-02-07T12:41:57.945Z,27.45
2023-02-07T12:42:57.944Z,26.75
2023-02-07T12:43:57.967Z,27.25
2023-02-07T12:44:57.932Z,26.12
2023-02-07T12:45:57.941Z,25.82
2023-02-07T12:46:57.902Z,25.20
2023-02-07T12:47:57.896Z,25.81
2023-02-07T12:48:57.870Z,24.51
2023-02-07T12:49:57.866Z,25.40
2023-02-07T12:50:57.849Z,25.61
2023-02-07T12:51:57.823Z,24.20
2023-02-07T12:52:57.808Z,26.46
2023-02-07T12:53:57.821Z,26.86
2023-02-07T12:54:57.803Z,27.45
2023-02-07T12:55:57.791Z,25.65
2023-02-07T12:56:57.766Z,25.34
2023-02-07T12:57:57.750Z,25.24
2023-02-07T12:58:57.756Z,25.78
2023-02-07T12:59:57.752Z,26.89
2023-02-07T13:00:57.729Z,26.18
2023-02-07T13:01:57.778Z,27.28
2023-02-07T13:02:57.693Z,26.47
2023-02-07T13:03:57.665Z,27.15
2023-02-07T13:04:57.649Z,25.23
2023-02-07T13:05:57.663Z,26.93
2023-02-07T13:06:57.626Z,26.64
2023-02-07T13:07:57.616Z,24.82
2023-02-07T13:08:57.594Z,26.03
2023-02-07T13:09:57.619Z,24.74
2023-02-07T13:10:57.571Z,26.07
2023-02-07T13:11:57.567Z,27.89
2023-02-07T13:12:57.547Z,27.58
2023-02-07T13:13:57.549Z,27.26
2023-02-07T13:14:57.520Z,27.48
2023-02-07T13:15:57.522Z,27.98
2023-02-07T13:16:57.488Z,25.95
2023-02-07T13:17:57.482Z,24.43
2023-02-07T13:18:57.458Z,24.54
2023-02-07T13:19:57.580Z,28.20